Time;durP1;ratioP1;P1;durP2;ratioP2;P2;SDS_P1;SDS_P2;PMS_P1;PMS_P2;Temp;Humidity;BMP_temperature;BMP_pressure;BME280_temperature;BME280_humidity;BME280_pressure;Samples;Min_cycle;Max_cycle;Signal;HPM_P1;HPM_P2
2021/12/05 00:23:38;;;;;;;44.88;21.75;;;;;;;;;;5095330;28;20039;-74
2021/12/05 00:26:05;;;;;;;46.28;22.10;;;;;;;;;;5095341;28;20376;-74
2021/12/05 00:37:05;;;;;;;46.00;22.17;;;;;;;;;;5095248;28;20035;-73
2021/12/05 00:47:01;;;;;;;58.63;23.52;;;;;;;;;;5094924;28;20033;-73
2021/12/05 01:02:49;;;;;;;54.70;24.00;;;;;;;;;;5094486;28;20051;-73
2021/12/05 01:10:16;;;;;;;46.63;20.90;;;;;;;;;;5094220;28;20111;-73
2021/12/05 01:15:11;;;;;;;50.92;22.48;;;;;;;;;;5094102;28;20437;-73
2021/12/05 01:17:54;;;;;;;53.53;25.23;;;;;;;;;;5093980;28;20031;-73
2021/12/05 01:20:20;;;;;;;50.97;22.48;;;;;;;;;;5094138;28;20115;-73
2021/12/05 01:22:56;;;;;;;50.63;24.58;;;;;;;;;;5075796;28;20123;-73
2021/12/05 01:25:37;;;;;;;46.00;23.55;;;;;;;;;;5075427;28;20438;-73
2021/12/05 01:54:38;;;;;;;47.55;22.60;;;;;;;;;;5077043;28;20024;-73
2021/12/05 01:59:53;;;;;;;51.35;24.83;;;;;;;;;;5093320;28;20028;-73
2021/12/05 02:34:45;;;;;;;50.17;22.77;;;;;;;;;;5093563;28;20032;-73
2021/12/05 02:43:13;;;;;;;48.70;21.83;;;;;;;;;;5093750;28;20392;-73
2021/12/05 02:45:16;;;;;;;54.20;21.13;;;;;;;;;;5087566;28;20032;-74
2021/12/05 02:47:49;;;;;;;56.08;24.13;;;;;;;;;;5093715;28;20433;-73
2021/12/05 02:50:16;;;;;;;51.85;22.50;;;;;;;;;;5074870;28;20028;-73
2021/12/05 02:52:43;;;;;;;54.28;23.30;;;;;;;;;;5074566;28;20032;-73
2021/12/05 02:55:17;;;;;;;48.88;22.45;;;;;;;;;;5074433;28;20070;-73
2021/12/05 03:00:14;;;;;;;49.88;23.33;;;;;;;;;;5092811;28;20114;-73
2021/12/05 03:02:44;;;;;;;57.75;23.50;;;;;;;;;;5074427;28;20028;-73
2021/12/05 03:05:15;;;;;;;50.13;23.30;;;;;;;;;;5074216;28;20048;-73
2021/12/05 03:07:46;;;;;;;51.55;22.02;;;;;;;;;;5074414;28;20032;-73
2021/12/05 03:10:13;;;;;;;53.28;22.88;;;;;;;;;;5092447;28;20024;-73
2021/12/05 03:12:40;;;;;;;52.63;23.33;;;;;;;;;;5074270;28;20533;-73
2021/12/05 03:15:08;;;;;;;54.90;23.00;;;;;;;;;;5092483;28;20024;-73
2021/12/05 03:17:35;;;;;;;50.05;22.63;;;;;;;;;;5074189;28;20037;-73
2021/12/05 03:20:01;;;;;;;54.90;22.35;;;;;;;;;;5092270;28;20025;-73
2021/12/05 03:22:28;;;;;;;51.22;23.50;;;;;;;;;;5092349;28;20024;-73
2021/12/05 03:24:54;;;;;;;48.33;22.70;;;;;;;;;;5092578;28;20032;-73
2021/12/05 03:27:20;;;;;;;56.97;24.92;;;;;;;;;;5092194;28;20063;-73
2021/12/05 03:29:47;;;;;;;46.38;21.85;;;;;;;;;;5074047;28;20027;-73
2021/12/05 03:32:13;;;;;;;48.05;22.60;;;;;;;;;;5092141;28;20118;-73
2021/12/05 03:34:40;;;;;;;48.78;22.15;;;;;;;;;;5074008;28;20074;-73
2021/12/05 03:37:08;;;;;;;53.67;22.70;;;;;;;;;;5092363;28;20110;-73
2021/12/05 03:39:34;;;;;;;45.88;21.52;;;;;;;;;;5074063;28;20068;-74
2021/12/05 03:42:01;;;;;;;48.10;21.98;;;;;;;;;;5092053;28;20477;-74
2021/12/05 03:44:29;;;;;;;48.83;22.55;;;;;;;;;;5092134;28;20023;-74
2021/12/05 03:46:56;;;;;;;50.40;23.15;;;;;;;;;;5073875;28;20035;-75
2021/12/05 03:49:23;;;;;;;49.08;22.33;;;;;;;;;;5093621;28;20027;-74
2021/12/05 03:51:54;;;;;;;53.55;23.88;;;;;;;;;;5095797;28;20471;-74
2021/12/05 03:54:21;;;;;;;54.70;23.88;;;;;;;;;;5077479;28;20063;-75
2021/12/05 03:56:47;;;;;;;52.05;22.85;;;;;;;;;;5077539;28;20035;-74
2021/12/05 03:59:15;;;;;;;49.95;22.17;;;;;;;;;;5095562;28;20146;-74
2021/12/05 04:01:42;;;;;;;49.35;23.05;;;;;;;;;;5077396;28;20032;-74
2021/12/05 04:04:09;;;;;;;47.45;22.83;;;;;;;;;;5095812;28;20054;-73
2021/12/05 04:06:36;;;;;;;50.10;21.98;;;;;;;;;;5073718;28;20045;-74
2021/12/05 04:09:05;;;;;;;47.13;22.23;;;;;;;;;;5075245;28;20508;-75
2021/12/05 04:11:37;;;;;;;49.85;21.48;;;;;;;;;;5073857;28;20027;-74
2021/12/05 04:14:07;;;;;;;48.35;21.00;;;;;;;;;;5073825;28;20361;-74
2021/12/05 04:16:35;;;;;;;50.83;22.05;;;;;;;;;;5073730;28;20024;-76
2021/12/05 04:19:01;;;;;;;45.53;20.42;;;;;;;;;;5073690;28;20110;-74
2021/12/05 04:21:29;;;;;;;48.30;23.02;;;;;;;;;;5074991;28;20032;-74
2021/12/05 04:23:57;;;;;;;52.67;22.75;;;;;;;;;;5074959;28;20020;-74
2021/12/05 04:26:23;;;;;;;49.17;22.13;;;;;;;;;;5074948;28;20016;-73
2021/12/05 04:28:49;;;;;;;50.28;22.25;;;;;;;;;;5074845;28;20048;-74
2021/12/05 04:31:20;;;;;;;51.00;22.83;;;;;;;;;;5075033;28;20021;-75
2021/12/05 04:33:46;;;;;;;48.38;22.70;;;;;;;;;;5073829;28;20107;-74
2021/12/05 04:36:12;;;;;;;55.20;23.98;;;;;;;;;;5074779;28;20048;-74
2021/12/05 04:38:39;;;;;;;49.35;22.27;;;;;;;;;;5074658;28;20067;-73
2021/12/05 04:41:06;;;;;;;59.05;23.58;;;;;;;;;;5074603;28;20032;-74
2021/12/05 04:43:36;;;;;;;54.90;23.42;;;;;;;;;;5074336;28;20066;-74
2021/12/05 04:46:04;;;;;;;61.30;25.23;;;;;;;;;;5074505;28;20442;-74
2021/12/05 04:48:31;;;;;;;52.97;22.73;;;;;;;;;;5073260;28;20033;-74
2021/12/05 04:50:57;;;;;;;58.50;22.73;;;;;;;;;;5074374;28;20025;-74
2021/12/05 04:53:26;;;;;;;54.55;23.90;;;;;;;;;;5074457;28;20026;-74
2021/12/05 04:55:53;;;;;;;50.10;21.98;;;;;;;;;;5073054;28;20468;-74
2021/12/05 04:58:19;;;;;;;56.83;22.50;;;;;;;;;;5074499;28;20423;-74
2021/12/05 05:00:45;;;;;;;54.33;22.58;;;;;;;;;;5071995;28;20043;-74
2021/12/05 05:03:13;;;;;;;49.05;22.60;;;;;;;;;;5074383;28;20063;-74
2021/12/05 05:05:44;;;;;;;51.88;22.67;;;;;;;;;;5081011;28;20044;-75
2021/12/05 05:08:11;;;;;;;49.92;22.20;;;;;;;;;;5076222;28;20028;-74
2021/12/05 05:10:37;;;;;;;54.88;23.85;;;;;;;;;;5094237;28;20016;-74
2021/12/05 05:13:04;;;;;;;56.72;22.75;;;;;;;;;;5094261;28;20082;-74
2021/12/05 05:15:31;;;;;;;57.42;24.08;;;;;;;;;;5094122;28;20036;-74
2021/12/05 05:17:59;;;;;;;50.25;21.67;;;;;;;;;;5094013;28;20418;-73
2021/12/05 05:23:38;;;;;;;50.65;23.27;;;;;;;;;;5094026;28;20024;-73
2021/12/05 05:26:34;;;;;;;53.50;22.60;;;;;;;;;;5075850;28;20490;-73
2021/12/05 05:29:44;;;;;;;52.17;22.80;;;;;;;;;;5093286;28;20032;-73
2021/12/05 05:43:16;;;;;;;45.33;19.75;;;;;;;;;;5093627;28;20035;-74
2021/12/05 05:50:44;;;;;;;52.97;23.02;;;;;;;;;;5093501;28;20020;-74
2021/12/05 05:53:11;;;;;;;49.70;21.38;;;;;;;;;;5093411;28;20115;-74
2021/12/05 05:55:37;;;;;;;55.67;23.88;;;;;;;;;;5093687;28;20173;-74
2021/12/05 05:58:11;;;;;;;51.92;21.65;;;;;;;;;;5093155;28;20545;-72
2021/12/05 06:00:50;;;;;;;54.25;22.65;;;;;;;;;;5093324;28;20107;-72
2021/12/05 06:03:22;;;;;;;55.17;24.08;;;;;;;;;;5075082;28;20053;-73
2021/12/05 06:05:50;;;;;;;54.72;24.17;;;;;;;;;;5093137;28;20048;-72
2021/12/05 06:08:16;;;;;;;49.78;22.67;;;;;;;;;;5093191;28;20387;-74
2021/12/05 06:10:43;;;;;;;47.78;22.33;;;;;;;;;;5075007;28;20107;-74
2021/12/05 06:13:09;;;;;;;53.28;23.25;;;;;;;;;;5093015;28;20107;-74
2021/12/05 06:15:35;;;;;;;60.83;25.05;;;;;;;;;;5093014;28;20021;-74
2021/12/05 06:18:01;;;;;;;66.70;24.85;;;;;;;;;;5092899;28;20036;-72
2021/12/05 06:20:29;;;;;;;65.53;25.70;;;;;;;;;;5093050;28;20038;-73
2021/12/05 06:22:56;;;;;;;57.15;24.80;;;;;;;;;;5092952;28;20024;-73
2021/12/05 06:25:25;;;;;;;63.15;27.20;;;;;;;;;;5074783;28;20024;-73
2021/12/05 06:27:52;;;;;;;57.50;24.52;;;;;;;;;;5074581;28;20116;-73
2021/12/05 06:30:32;;;;;;;51.58;24.58;;;;;;;;;;5092869;28;20024;-73
2021/12/05 06:46:15;;;;;;;52.25;22.92;;;;;;;;;;5113841;28;20016;-74
2021/12/05 06:48:43;;;;;;;47.50;22.35;;;;;;;;;;5095596;28;20034;-74
2021/12/05 06:51:10;;;;;;;42.05;20.38;;;;;;;;;;5113786;28;20376;-74
2021/12/05 06:53:36;;;;;;;40.42;20.83;;;;;;;;;;5095641;28;20032;-74
2021/12/05 06:56:03;;;;;;;41.05;18.85;;;;;;;;;;5113770;28;20062;-74
2021/12/05 06:58:31;;;;;;;42.92;19.92;;;;;;;;;;5113708;28;20043;-72
2021/12/05 07:00:57;;;;;;;47.22;20.45;;;;;;;;;;5095601;28;20039;-73
2021/12/05 07:03:24;;;;;;;47.45;20.77;;;;;;;;;;5095468;28;20361;-73
2021/12/05 07:05:55;;;;;;;50.75;23.13;;;;;;;;;;5092398;28;20086;-73
2021/12/05 07:08:25;;;;;;;49.08;22.20;;;;;;;;;;5093942;28;20031;-74
2021/12/05 07:16:03;;;;;;;47.45;22.40;;;;;;;;;;5094181;28;20484;-72
2021/12/05 07:26:19;;;;;;;58.17;27.02;;;;;;;;;;5098042;28;20547;-74
2021/12/05 07:43:11;;;;;;;64.43;27.55;;;;;;;;;;5054709;28;20032;-72
2021/12/05 07:45:46;;;;;;;62.15;26.52;;;;;;;;;;5085309;28;20481;-72
2021/12/05 07:48:21;;;;;;;62.90;28.98;;;;;;;;;;5096801;28;20016;-73
2021/12/05 07:51:02;;;;;;;64.43;26.88;;;;;;;;;;5095590;28;20032;-71
2021/12/05 07:53:34;;;;;;;57.72;24.67;;;;;;;;;;5097035;28;20380;-72
2021/12/05 07:56:05;;;;;;;63.83;28.30;;;;;;;;;;5095393;28;20506;-73
2021/12/05 08:17:36;;;;;;;56.00;23.38;;;;;;;;;;5116525;28;20035;-73
2021/12/05 08:20:03;;;;;;;52.35;22.80;;;;;;;;;;5116517;28;20027;-73
2021/12/05 08:22:29;;;;;;;56.53;25.25;;;;;;;;;;5116485;28;20098;-73
2021/12/05 08:25:00;;;;;;;52.75;23.88;;;;;;;;;;5098145;28;20483;-73
2021/12/05 08:27:26;;;;;;;54.63;25.40;;;;;;;;;;5117094;28;20020;-73
2021/12/05 08:29:56;;;;;;;55.63;26.67;;;;;;;;;;5116546;28;20051;-72
2021/12/05 08:33:14;;;;;;;59.25;25.98;;;;;;;;;;5117269;28;20433;-74
2021/12/05 08:35:36;;;;;;;53.55;23.65;;;;;;;;;;5107913;28;20396;-73
2021/12/05 08:46:15;;;;;;;52.15;23.80;;;;;;;;;;5116275;28;20032;-72
2021/12/05 09:22:24;;;;;;;48.00;23.80;;;;;;;;;;5100140;28;20107;-72
2021/12/05 09:25:08;;;;;;;42.17;21.00;;;;;;;;;;5115032;28;20054;-72
2021/12/05 09:38:56;;;;;;;46.95;24.33;;;;;;;;;;5115696;28;20414;-72
2021/12/05 10:09:15;;;;;;;63.47;30.98;;;;;;;;;;5110663;28;20621;-70
2021/12/05 10:11:53;;;;;;;55.20;25.08;;;;;;;;;;5113109;28;20020;-70
2021/12/05 10:14:42;;;;;;;46.67;24.40;;;;;;;;;;5111339;28;20023;-70
2021/12/05 10:38:39;;;;;;;53.40;25.27;;;;;;;;;;5112563;28;20475;-71
2021/12/05 10:43:40;;;;;;;51.65;25.25;;;;;;;;;;5111252;28;20032;-71
2021/12/05 10:46:09;;;;;;;55.75;26.83;;;;;;;;;;5112354;28;20438;-72
2021/12/05 10:48:38;;;;;;;59.90;29.60;;;;;;;;;;5112415;28;20062;-70
2021/12/05 10:51:06;;;;;;;57.58;27.42;;;;;;;;;;5112552;28;20080;-71
2021/12/05 10:53:36;;;;;;;54.78;26.20;;;;;;;;;;5109845;28;20558;-71
2021/12/05 10:56:09;;;;;;;59.42;27.42;;;;;;;;;;5112291;28;20024;-70
2021/12/05 10:58:37;;;;;;;57.85;26.77;;;;;;;;;;5091901;28;20028;-70
2021/12/05 11:01:08;;;;;;;55.47;28.05;;;;;;;;;;5117729;28;20020;-70
2021/12/05 11:03:34;;;;;;;54.25;26.90;;;;;;;;;;5117604;28;20090;-71
2021/12/05 11:06:01;;;;;;;47.13;25.33;;;;;;;;;;5096080;28;20051;-71
2021/12/05 11:08:39;;;;;;;59.17;27.63;;;;;;;;;;5097595;28;20059;-71
2021/12/05 11:11:10;;;;;;;60.13;28.23;;;;;;;;;;5096349;28;20024;-71
2021/12/05 11:13:37;;;;;;;51.60;24.80;;;;;;;;;;5096258;28;20510;-73
2021/12/05 11:16:06;;;;;;;54.95;24.58;;;;;;;;;;5096176;28;20020;-73
2021/12/05 11:18:44;;;;;;;58.55;27.13;;;;;;;;;;5095851;28;20545;-73
2021/12/05 11:21:31;;;;;;;61.17;28.30;;;;;;;;;;5096022;28;20388;-72
2021/12/05 11:24:09;;;;;;;48.78;24.73;;;;;;;;;;5096066;28;20032;-74
2021/12/05 11:26:36;;;;;;;59.13;26.55;;;;;;;;;;5097731;28;20016;-73
2021/12/05 11:29:02;;;;;;;60.30;28.98;;;;;;;;;;5095964;28;20361;-73
2021/12/05 11:31:30;;;;;;;59.42;28.35;;;;;;;;;;5095864;28;20020;-73
2021/12/05 11:33:57;;;;;;;61.05;29.63;;;;;;;;;;5097608;28;20024;-73
2021/12/05 11:36:24;;;;;;;55.30;26.42;;;;;;;;;;5096980;28;20484;-75
2021/12/05 11:38:51;;;;;;;55.63;26.88;;;;;;;;;;5095603;28;20032;-74
2021/12/05 11:41:21;;;;;;;51.10;25.35;;;;;;;;;;5095669;28;20020;-72
2021/12/05 11:43:59;;;;;;;60.15;27.60;;;;;;;;;;5096831;28;20028;-74
2021/12/05 11:46:28;;;;;;;62.30;26.58;;;;;;;;;;5096938;28;20023;-73
2021/12/05 11:48:59;;;;;;;60.40;27.27;;;;;;;;;;5095510;28;20039;-74
2021/12/05 11:51:29;;;;;;;58.08;27.00;;;;;;;;;;5095499;28;20486;-74
2021/12/05 11:54:08;;;;;;;61.45;27.65;;;;;;;;;;5096668;28;20039;-73
2021/12/05 11:56:34;;;;;;;61.58;29.05;;;;;;;;;;5096609;28;20031;-74
2021/12/05 11:59:22;;;;;;;58.80;26.80;;;;;;;;;;5096497;28;20071;-74
2021/12/05 12:01:51;;;;;;;65.20;28.83;;;;;;;;;;5096067;28;20052;-75
2021/12/05 12:04:19;;;;;;;55.35;26.30;;;;;;;;;;5096485;28;20032;-74
2021/12/05 12:06:46;;;;;;;61.50;26.40;;;;;;;;;;5110248;28;20044;-73
2021/12/05 12:09:12;;;;;;;55.65;25.23;;;;;;;;;;5098460;28;20027;-74
2021/12/05 12:11:38;;;;;;;63.30;27.95;;;;;;;;;;5116252;28;20476;-75
2021/12/05 12:14:05;;;;;;;61.92;27.48;;;;;;;;;;5098319;28;20099;-72
2021/12/05 12:16:33;;;;;;;67.38;27.83;;;;;;;;;;5098365;28;20023;-73
2021/12/05 12:19:01;;;;;;;65.13;27.65;;;;;;;;;;5116555;28;20559;-73
2021/12/05 12:21:37;;;;;;;64.50;26.92;;;;;;;;;;5081413;28;20039;-72
2021/12/05 12:24:03;;;;;;;62.00;27.42;;;;;;;;;;5098299;28;20057;-72
2021/12/05 12:26:29;;;;;;;63.78;28.63;;;;;;;;;;5098094;28;20023;-72
2021/12/05 12:28:59;;;;;;;67.05;28.23;;;;;;;;;;5098142;28;20031;-72
2021/12/05 12:31:33;;;;;;;70.75;28.77;;;;;;;;;;5116693;28;20195;-72
2021/12/05 12:34:02;;;;;;;68.07;29.05;;;;;;;;;;5098172;28;20024;-73
2021/12/05 12:36:33;;;;;;;66.25;29.45;;;;;;;;;;5116734;28;20024;-73
2021/12/05 12:39:04;;;;;;;68.30;28.33;;;;;;;;;;5116352;28;20039;-73
2021/12/05 12:41:34;;;;;;;66.70;26.67;;;;;;;;;;5098007;28;20027;-73
2021/12/05 12:44:02;;;;;;;73.85;28.50;;;;;;;;;;5113041;28;20040;-73
2021/12/05 12:46:30;;;;;;;69.95;27.23;;;;;;;;;;5116128;28;20088;-73
2021/12/05 12:49:23;;;;;;;65.40;26.25;;;;;;;;;;5097771;28;20072;-72
2021/12/05 12:51:57;;;;;;;63.83;24.67;;;;;;;;;;5116604;28;20023;-73
2021/12/05 12:54:44;;;;;;;69.07;28.25;;;;;;;;;;5081489;28;20027;-73
2021/12/05 12:57:19;;;;;;;70.45;27.30;;;;;;;;;;5097550;28;20538;-73
2021/12/05 12:59:55;;;;;;;65.68;25.98;;;;;;;;;;5115767;28;20063;-71
2021/12/05 13:02:31;;;;;;;62.25;24.98;;;;;;;;;;5115924;28;20320;-72
2021/12/05 13:05:15;;;;;;;60.25;23.67;;;;;;;;;;5082011;28;20035;-72
2021/12/05 13:10:29;;;;;;;63.42;24.80;;;;;;;;;;5095312;28;20031;-73
2021/12/05 13:13:06;;;;;;;74.70;27.10;;;;;;;;;;5095053;28;20063;-73
2021/12/05 13:15:42;;;;;;;55.50;23.70;;;;;;;;;;5076934;28;20496;-73
2021/12/05 13:18:11;;;;;;;60.35;25.80;;;;;;;;;;5076730;28;20036;-76
2021/12/05 13:20:43;;;;;;;63.30;24.10;;;;;;;;;;5086476;28;20061;-75
2021/12/05 13:23:12;;;;;;;68.68;28.60;;;;;;;;;;5095685;28;20097;-72
2021/12/05 13:25:56;;;;;;;74.28;26.13;;;;;;;;;;5114802;28;20484;-72
2021/12/05 13:28:37;;;;;;;69.15;30.00;;;;;;;;;;5115224;28;20031;-73
2021/12/05 13:31:22;;;;;;;77.78;29.52;;;;;;;;;;5096697;28;20383;-73
2021/12/05 13:33:49;;;;;;;63.28;27.83;;;;;;;;;;5096647;28;20034;-74
2021/12/05 13:36:28;;;;;;;69.80;28.15;;;;;;;;;;5096678;28;20023;-74
2021/12/05 13:38:55;;;;;;;62.10;24.90;;;;;;;;;;5097385;28;20088;-74
2021/12/05 13:41:21;;;;;;;59.30;24.55;;;;;;;;;;5114817;28;20019;-72
2021/12/05 13:43:58;;;;;;;72.13;29.58;;;;;;;;;;5096448;28;20599;-72
2021/12/05 13:46:35;;;;;;;72.55;29.65;;;;;;;;;;5096514;28;20026;-72
2021/12/05 13:49:03;;;;;;;66.85;29.83;;;;;;;;;;5096497;28;20039;-71
2021/12/05 13:51:30;;;;;;;77.05;30.80;;;;;;;;;;5114815;28;20024;-72
2021/12/05 13:54:00;;;;;;;73.97;30.60;;;;;;;;;;5096423;28;20031;-73
2021/12/05 13:56:27;;;;;;;81.38;35.60;;;;;;;;;;5114680;28;20012;-74
2021/12/05 13:58:54;;;;;;;90.82;40.53;;;;;;;;;;5096279;28;20112;-72
2021/12/05 14:01:34;;;;;;;82.40;31.38;;;;;;;;;;5096243;28;20023;-73
2021/12/05 14:04:19;;;;;;;85.38;36.22;;;;;;;;;;5114842;28;20031;-74
2021/12/05 14:06:49;;;;;;;83.38;33.85;;;;;;;;;;5096016;28;20116;-73
2021/12/05 14:09:23;;;;;;;72.85;29.15;;;;;;;;;;5096041;28;20495;-74
2021/12/05 14:11:53;;;;;;;64.15;28.27;;;;;;;;;;5096473;28;20461;-73
2021/12/05 14:14:21;;;;;;;64.55;27.65;;;;;;;;;;5114418;28;20020;-73
2021/12/05 14:16:48;;;;;;;58.90;24.38;;;;;;;;;;5096062;28;20023;-73
2021/12/05 14:19:16;;;;;;;58.72;25.48;;;;;;;;;;5096065;28;20122;-74
2021/12/05 14:21:47;;;;;;;57.80;25.40;;;;;;;;;;5095884;28;20027;-71
2021/12/05 14:24:15;;;;;;;63.13;25.67;;;;;;;;;;5095535;28;20506;-73
2021/12/05 14:26:41;;;;;;;55.13;24.27;;;;;;;;;;5095476;28;20032;-72
2021/12/05 14:29:10;;;;;;;63.75;26.63;;;;;;;;;;5095472;28;20084;-71
2021/12/05 14:31:39;;;;;;;58.75;24.10;;;;;;;;;;5113674;28;20020;-74
2021/12/05 14:34:05;;;;;;;65.22;27.27;;;;;;;;;;5113658;28;20501;-73
2021/12/05 14:36:34;;;;;;;60.10;25.80;;;;;;;;;;5095469;28;20019;-72
2021/12/05 14:39:09;;;;;;;72.90;28.65;;;;;;;;;;5094931;28;20043;-74
2021/12/05 14:41:36;;;;;;;66.25;25.35;;;;;;;;;;5095335;28;20027;-74
2021/12/05 14:44:02;;;;;;;65.50;26.35;;;;;;;;;;5078398;28;20448;-75
2021/12/05 14:46:28;;;;;;;69.75;28.38;;;;;;;;;;5093815;28;20069;-72
2021/12/05 14:48:58;;;;;;;69.53;30.13;;;;;;;;;;5093889;28;20080;-72
2021/12/05 14:51:35;;;;;;;69.35;27.52;;;;;;;;;;5090713;28;20020;-72
2021/12/05 14:54:01;;;;;;;70.20;28.13;;;;;;;;;;5113766;28;20066;-72
2021/12/05 14:56:28;;;;;;;63.70;25.77;;;;;;;;;;5113577;28;20029;-72
2021/12/05 14:59:11;;;;;;;67.28;29.83;;;;;;;;;;5114004;28;20039;-73
2021/12/05 15:01:39;;;;;;;78.97;31.83;;;;;;;;;;5113740;28;20024;-72
2021/12/05 15:04:06;;;;;;;81.90;28.90;;;;;;;;;;5095720;28;20054;-73
2021/12/05 15:06:42;;;;;;;86.50;31.75;;;;;;;;;;5113469;28;20130;-73
2021/12/05 15:09:21;;;;;;;62.58;26.35;;;;;;;;;;5114900;28;20102;-73
2021/12/05 15:11:49;;;;;;;79.60;30.95;;;;;;;;;;5113723;28;20035;-73
2021/12/05 15:14:15;;;;;;;73.90;29.00;;;;;;;;;;5113629;28;20028;-73
2021/12/05 15:16:50;;;;;;;80.50;32.22;;;;;;;;;;5095388;28;20020;-72
2021/12/05 15:19:16;;;;;;;86.25;28.90;;;;;;;;;;5113579;28;20036;-73
2021/12/05 15:21:43;;;;;;;81.28;31.55;;;;;;;;;;5095294;28;20134;-72
2021/12/05 15:24:15;;;;;;;69.00;28.15;;;;;;;;;;5113549;28;20023;-72
2021/12/05 15:26:41;;;;;;;67.00;27.33;;;;;;;;;;5113485;28;20020;-72
2021/12/05 15:29:07;;;;;;;65.80;28.65;;;;;;;;;;5114099;28;20016;-71
2021/12/05 15:31:35;;;;;;;74.43;28.48;;;;;;;;;;5095210;28;20453;-72
2021/12/05 15:34:02;;;;;;;75.50;33.42;;;;;;;;;;5113465;28;20019;-71
2021/12/05 15:36:34;;;;;;;75.97;29.73;;;;;;;;;;5113446;28;20019;-72
2021/12/05 15:39:11;;;;;;;81.95;34.10;;;;;;;;;;5113626;28;20044;-71
2021/12/05 15:41:37;;;;;;;73.85;29.88;;;;;;;;;;5114070;28;20102;-74
2021/12/05 15:44:03;;;;;;;78.50;30.42;;;;;;;;;;5095147;28;20114;-73
2021/12/05 15:46:29;;;;;;;69.75;29.42;;;;;;;;;;5098199;28;20119;-73
2021/12/05 15:48:57;;;;;;;65.95;28.20;;;;;;;;;;5117726;28;20035;-73
2021/12/05 15:51:24;;;;;;;77.40;30.33;;;;;;;;;;5117176;28;20015;-73
2021/12/05 15:53:50;;;;;;;93.72;34.90;;;;;;;;;;5117514;28;20027;-72
2021/12/05 15:56:18;;;;;;;77.28;31.25;;;;;;;;;;5099168;28;20460;-73
2021/12/05 15:58:47;;;;;;;86.85;35.10;;;;;;;;;;5098542;28;20036;-73
2021/12/05 16:01:14;;;;;;;73.78;31.35;;;;;;;;;;5098494;28;20118;-74
2021/12/05 16:03:52;;;;;;;85.00;35.28;;;;;;;;;;5098431;28;20414;-73
2021/12/05 16:06:20;;;;;;;84.40;34.20;;;;;;;;;;5094765;28;20044;-74
2021/12/05 16:08:49;;;;;;;87.47;33.95;;;;;;;;;;5096398;28;20097;-73
2021/12/05 16:11:20;;;;;;;88.38;35.58;;;;;;;;;;5095257;28;20048;-73
2021/12/05 16:13:49;;;;;;;86.35;33.75;;;;;;;;;;5095076;28;20084;-74
2021/12/05 16:16:21;;;;;;;85.97;34.20;;;;;;;;;;5094969;28;20073;-73
2021/12/05 16:18:50;;;;;;;85.50;36.78;;;;;;;;;;5094866;28;20040;-73
2021/12/05 16:21:17;;;;;;;96.22;37.08;;;;;;;;;;5094923;28;20106;-74
2021/12/05 16:23:43;;;;;;;78.25;30.92;;;;;;;;;;5096355;28;20082;-73
2021/12/05 16:26:10;;;;;;;75.00;30.65;;;;;;;;;;5094820;28;20058;-74
2021/12/05 16:28:38;;;;;;;84.63;35.38;;;;;;;;;;5094766;28;20028;-73
2021/12/05 16:31:16;;;;;;;86.70;32.60;;;;;;;;;;5096197;28;20028;-73
2021/12/05 16:33:48;;;;;;;73.68;31.27;;;;;;;;;;5077894;28;20024;-74
2021/12/05 16:36:15;;;;;;;98.20;37.33;;;;;;;;;;5095874;28;20024;-72
2021/12/05 16:38:43;;;;;;;80.68;34.17;;;;;;;;;;5094448;28;20396;-73
2021/12/05 16:41:12;;;;;;;73.40;29.85;;;;;;;;;;5095853;28;20066;-73
2021/12/05 16:43:46;;;;;;;78.40;30.70;;;;;;;;;;5094438;28;20072;-73
2021/12/05 16:46:17;;;;;;;74.35;29.83;;;;;;;;;;5094442;28;20028;-72
2021/12/05 16:48:44;;;;;;;85.45;33.70;;;;;;;;;;5094051;28;20024;-71
2021/12/05 16:51:30;;;;;;;79.93;33.00;;;;;;;;;;5094646;28;20047;-72
2021/12/05 16:54:02;;;;;;;87.93;32.22;;;;;;;;;;5080493;28;20039;-71
2021/12/05 16:56:44;;;;;;;83.20;32.72;;;;;;;;;;5093104;28;20536;-72
2021/12/05 16:59:22;;;;;;;77.07;32.17;;;;;;;;;;5094020;28;20032;-73
2021/12/05 17:02:06;;;;;;;81.90;35.60;;;;;;;;;;5095914;28;20036;-72
2021/12/05 17:04:49;;;;;;;79.00;31.40;;;;;;;;;;5095136;28;20056;-72
2021/12/05 17:07:36;;;;;;;88.78;35.50;;;;;;;;;;5093861;28;20071;-73
2021/12/05 17:10:04;;;;;;;82.70;32.92;;;;;;;;;;5095518;28;20031;-72
2021/12/05 17:12:32;;;;;;;87.72;36.40;;;;;;;;;;5095782;28;20035;-71
2021/12/05 17:15:15;;;;;;;80.32;32.08;;;;;;;;;;5095185;28;20028;-71
2021/12/05 17:17:41;;;;;;;86.73;33.77;;;;;;;;;;5095354;28;20036;-73
2021/12/05 17:20:21;;;;;;;80.47;32.13;;;;;;;;;;5095006;28;20281;-72
2021/12/05 17:22:56;;;;;;;86.22;34.10;;;;;;;;;;5093704;28;20430;-72
2021/12/05 17:25:27;;;;;;;82.55;34.00;;;;;;;;;;5095402;28;20021;-71
2021/12/05 17:27:53;;;;;;;86.43;36.78;;;;;;;;;;5095423;28;20028;-72
2021/12/05 17:30:19;;;;;;;87.10;36.65;;;;;;;;;;5095409;28;20165;-72
2021/12/05 17:32:46;;;;;;;79.93;34.42;;;;;;;;;;5093503;28;20392;-71
2021/12/05 17:35:12;;;;;;;83.88;33.88;;;;;;;;;;5094704;28;20028;-73
2021/12/05 17:37:43;;;;;;;86.70;34.40;;;;;;;;;;5093401;28;20039;-73
2021/12/05 17:40:09;;;;;;;84.00;34.47;;;;;;;;;;5095301;28;20099;-72
2021/12/05 17:42:36;;;;;;;93.03;35.13;;;;;;;;;;5093367;28;20111;-72
2021/12/05 17:45:07;;;;;;;80.13;33.83;;;;;;;;;;5094522;28;20020;-72
2021/12/05 17:47:33;;;;;;;92.28;38.30;;;;;;;;;;5094554;28;20081;-72
2021/12/05 17:50:01;;;;;;;85.07;37.03;;;;;;;;;;5094518;28;20024;-72
2021/12/05 17:52:29;;;;;;;85.50;34.80;;;;;;;;;;5094534;28;20034;-72
2021/12/05 17:55:04;;;;;;;80.60;32.50;;;;;;;;;;5093084;28;20020;-72
2021/12/05 17:57:37;;;;;;;86.32;33.08;;;;;;;;;;5093089;28;20031;-72
2021/12/05 18:00:15;;;;;;;81.60;31.95;;;;;;;;;;5092914;28;20480;-71
2021/12/05 18:02:53;;;;;;;82.07;33.15;;;;;;;;;;5093846;28;20105;-72
2021/12/05 18:05:31;;;;;;;79.80;31.63;;;;;;;;;;5093553;28;20483;-73
2021/12/05 18:07:59;;;;;;;75.28;31.52;;;;;;;;;;5095958;28;20070;-71
2021/12/05 18:10:26;;;;;;;86.47;34.55;;;;;;;;;;5096063;28;20065;-72
2021/12/05 18:12:56;;;;;;;79.50;31.27;;;;;;;;;;5113400;28;20039;-72
2021/12/05 18:15:27;;;;;;;82.13;29.45;;;;;;;;;;5095181;28;20016;-73
2021/12/05 18:17:54;;;;;;;91.07;36.60;;;;;;;;;;5095743;28;20035;-73
2021/12/05 18:20:25;;;;;;;82.40;33.67;;;;;;;;;;5095972;28;20471;-73
2021/12/05 18:22:55;;;;;;;82.60;31.98;;;;;;;;;;5095961;28;20015;-73
2021/12/05 18:25:21;;;;;;;88.32;36.58;;;;;;;;;;5094788;28;20028;-72
2021/12/05 18:27:48;;;;;;;84.88;35.30;;;;;;;;;;5094419;28;20031;-72
2021/12/05 18:30:16;;;;;;;87.53;35.58;;;;;;;;;;5094787;28;20059;-72
2021/12/05 18:32:42;;;;;;;89.35;36.35;;;;;;;;;;5095187;28;20472;-74
2021/12/05 18:35:10;;;;;;;82.50;30.77;;;;;;;;;;5095735;28;20091;-74
2021/12/05 18:37:37;;;;;;;77.38;30.17;;;;;;;;;;5094888;28;20035;-73
2021/12/05 18:40:04;;;;;;;91.72;36.67;;;;;;;;;;5095774;28;20352;-74
2021/12/05 18:42:30;;;;;;;89.63;34.00;;;;;;;;;;5113971;28;20043;-72
2021/12/05 18:45:00;;;;;;;93.13;34.58;;;;;;;;;;5095670;28;20023;-72
2021/12/05 18:47:27;;;;;;;102.30;38.78;;;;;;;;;;5114603;28;20107;-73
2021/12/05 18:49:54;;;;;;;101.15;38.53;;;;;;;;;;5095954;28;20034;-74
2021/12/05 18:52:22;;;;;;;101.13;38.22;;;;;;;;;;5095446;28;20027;-74
2021/12/05 18:54:48;;;;;;;89.53;34.58;;;;;;;;;;5095522;28;20024;-73
2021/12/05 18:57:17;;;;;;;87.60;35.15;;;;;;;;;;5113428;28;20027;-74
2021/12/05 18:59:49;;;;;;;105.90;39.95;;;;;;;;;;5095456;28;20433;-74
2021/12/05 19:05:05;;;;;;;123.97;45.72;;;;;;;;;;5114329;28;20031;-73
2021/12/05 19:07:44;;;;;;;130.48;51.42;;;;;;;;;;5113596;28;20054;-74
2021/12/05 19:12:54;;;;;;;115.15;41.78;;;;;;;;;;5114291;28;20088;-74
2021/12/05 19:15:21;;;;;;;129.38;44.97;;;;;;;;;;5113550;28;20027;-74
2021/12/05 19:17:47;;;;;;;106.18;39.80;;;;;;;;;;5095303;28;20027;-74
2021/12/05 19:20:24;;;;;;;94.18;35.47;;;;;;;;;;5096555;28;20027;-76
2021/12/05 19:22:54;;;;;;;110.30;43.88;;;;;;;;;;5117669;28;20036;-75
2021/12/05 19:25:23;;;;;;;102.65;38.78;;;;;;;;;;5099312;28;20023;-74
2021/12/05 19:27:51;;;;;;;115.05;46.40;;;;;;;;;;5118128;28;20031;-75
2021/12/05 19:30:23;;;;;;;101.85;40.05;;;;;;;;;;5099311;28;20024;-73
2021/12/05 19:32:49;;;;;;;118.97;45.75;;;;;;;;;;5099156;28;20023;-74
2021/12/05 19:35:17;;;;;;;116.03;43.20;;;;;;;;;;5099163;28;20115;-73
2021/12/05 19:37:44;;;;;;;106.43;39.42;;;;;;;;;;5098965;28;20108;-74
2021/12/05 19:40:15;;;;;;;106.43;39.28;;;;;;;;;;5082284;28;20058;-73
2021/12/05 19:42:41;;;;;;;99.07;36.05;;;;;;;;;;5095974;28;20954;-72
2021/12/05 19:45:08;;;;;;;103.22;38.50;;;;;;;;;;5098312;28;20019;-73
2021/12/05 19:47:34;;;;;;;96.90;37.58;;;;;;;;;;5098377;28;20024;-73
2021/12/05 19:50:00;;;;;;;110.15;41.33;;;;;;;;;;5098635;28;20034;-73
2021/12/05 19:52:26;;;;;;;107.40;37.67;;;;;;;;;;5098848;28;20114;-73
2021/12/05 19:54:52;;;;;;;104.00;38.78;;;;;;;;;;5098749;28;20032;-74